sensor_id;sensor_type;location;lat;lon;timestamp;temperature;humidity
68274;SHT30;55104;47.356;19.448;2022-12-31T00:00:40;3.91;98.01
68274;SHT30;55104;47.356;19.448;2022-12-31T00:03:43;3.91;98.22
68274;SHT30;55104;47.356;19.448;2022-12-31T00:06:46;3.91;98.27
68274;SHT30;55104;47.356;19.448;2022-12-31T00:09:48;3.91;98.33
68274;SHT30;55104;47.356;19.448;2022-12-31T00:12:50;3.90;98.41
68274;SHT30;55104;47.356;19.448;2022-12-31T00:15:52;3.91;98.61
68274;SHT30;55104;47.356;19.448;2022-12-31T00:18:56;3.94;98.65
68274;SHT30;55104;47.356;19.448;2022-12-31T00:21:59;3.94;98.51
68274;SHT30;55104;47.356;19.448;2022-12-31T00:25:02;3.93;98.53
68274;SHT30;55104;47.356;19.448;2022-12-31T00:28:04;3.93;98.62
68274;SHT30;55104;47.356;19.448;2022-12-31T00:31:38;3.90;98.70
68274;SHT30;55104;47.356;19.448;2022-12-31T00:34:40;3.95;98.67
68274;SHT30;55104;47.356;19.448;2022-12-31T00:37:42;3.99;98.55
68274;SHT30;55104;47.356;19.448;2022-12-31T00:40:45;3.99;98.51
68274;SHT30;55104;47.356;19.448;2022-12-31T00:43:47;4.02;98.40
68274;SHT30;55104;47.356;19.448;2022-12-31T00:46:49;3.98;98.47
68274;SHT30;55104;47.356;19.448;2022-12-31T00:49:51;3.97;98.51
68274;SHT30;55104;47.356;19.448;2022-12-31T00:52:53;3.99;98.59
68274;SHT30;55104;47.356;19.448;2022-12-31T00:59:02;3.95;98.69
68274;SHT30;55104;47.356;19.448;2022-12-31T01:02:04;3.94;98.69
68274;SHT30;55104;47.356;19.448;2022-12-31T01:05:06;3.97;98.71
68274;SHT30;55104;47.356;19.448;2022-12-31T01:08:09;3.95;98.69
68274;SHT30;55104;47.356;19.448;2022-12-31T01:11:11;3.97;98.74
68274;SHT30;55104;47.356;19.448;2022-12-31T01:14:19;3.97;98.73
68274;SHT30;55104;47.356;19.448;2022-12-31T01:17:22;3.99;98.65
68274;SHT30;55104;47.356;19.448;2022-12-31T01:20:26;3.99;98.69
68274;SHT30;55104;47.356;19.448;2022-12-31T01:23:28;3.97;98.76
68274;SHT30;55104;47.356;19.448;2022-12-31T01:26:30;3.99;98.78
68274;SHT30;55104;47.356;19.448;2022-12-31T01:29:33;3.95;98.85
68274;SHT30;55104;47.356;19.448;2022-12-31T01:32:35;3.88;98.86
68274;SHT30;55104;47.356;19.448;2022-12-31T01:35:38;3.94;98.92
68274;SHT30;55104;47.356;19.448;2022-12-31T01:38:41;3.90;98.89
68274;SHT30;55104;47.356;19.448;2022-12-31T01:41:46;3.88;98.88
68274;SHT30;55104;47.356;19.448;2022-12-31T01:44:51;3.91;98.88
68274;SHT30;55104;47.356;19.448;2022-12-31T01:47:55;3.93;98.78
68274;SHT30;55104;47.356;19.448;2022-12-31T01:50:58;3.99;98.53
68274;SHT30;55104;47.356;19.448;2022-12-31T01:54:03;4.01;98.34
68274;SHT30;55104;47.356;19.448;2022-12-31T01:57:08;3.97;98.28
68274;SHT30;55104;47.356;19.448;2022-12-31T02:00:11;3.95;98.33
68274;SHT30;55104;47.356;19.448;2022-12-31T02:03:13;3.97;98.25
68274;SHT30;55104;47.356;19.448;2022-12-31T02:06:19;3.93;98.23
68274;SHT30;55104;47.356;19.448;2022-12-31T02:09:22;3.90;98.35
68274;SHT30;55104;47.356;19.448;2022-12-31T02:12:24;3.93;98.45
68274;SHT30;55104;47.356;19.448;2022-12-31T02:15:40;3.93;98.52
68274;SHT30;55104;47.356;19.448;2022-12-31T02:35:50;3.87;98.82
68274;SHT30;55104;47.356;19.448;2022-12-31T02:38:54;3.84;99.00
68274;SHT30;55104;47.356;19.448;2022-12-31T02:41:59;3.81;99.09
68274;SHT30;55104;47.356;19.448;2022-12-31T02:45:02;3.80;99.19
68274;SHT30;55104;47.356;19.448;2022-12-31T02:48:25;3.74;99.14
68274;SHT30;55104;47.356;19.448;2022-12-31T02:51:48;3.74;99.16
68274;SHT30;55104;47.356;19.448;2022-12-31T03:01:54;3.71;99.23
68274;SHT30;55104;47.356;19.448;2022-12-31T03:05:22;3.71;99.28
68274;SHT30;55104;47.356;19.448;2022-12-31T03:08:25;3.77;99.27
68274;SHT30;55104;47.356;19.448;2022-12-31T03:11:27;3.80;99.25
68274;SHT30;55104;47.356;19.448;2022-12-31T03:14:48;3.77;99.07
68274;SHT30;55104;47.356;19.448;2022-12-31T03:18:10;3.78;99.09
68274;SHT30;55104;47.356;19.448;2022-12-31T03:21:12;3.80;99.11
68274;SHT30;55104;47.356;19.448;2022-12-31T03:24:33;3.76;99.13
68274;SHT30;55104;47.356;19.448;2022-12-31T03:27:54;3.80;99.06
68274;SHT30;55104;47.356;19.448;2022-12-31T03:31:00;3.76;98.96
68274;SHT30;55104;47.356;19.448;2022-12-31T03:34:02;3.70;99.09
68274;SHT30;55104;47.356;19.448;2022-12-31T03:37:04;3.71;99.14
68274;SHT30;55104;47.356;19.448;2022-12-31T03:40:07;3.67;99.01
68274;SHT30;55104;47.356;19.448;2022-12-31T03:43:12;3.60;98.98
68274;SHT30;55104;47.356;19.448;2022-12-31T03:46:14;3.59;98.95
68274;SHT30;55104;47.356;19.448;2022-12-31T03:49:16;3.52;99.06
68274;SHT30;55104;47.356;19.448;2022-12-31T03:52:18;3.50;99.12
68274;SHT30;55104;47.356;19.448;2022-12-31T03:55:20;3.44;99.26
68274;SHT30;55104;47.356;19.448;2022-12-31T03:58:23;3.40;99.38
68274;SHT30;55104;47.356;19.448;2022-12-31T04:01:25;3.44;99.31
68274;SHT30;55104;47.356;19.448;2022-12-31T04:04:27;3.43;99.36
68274;SHT30;55104;47.356;19.448;2022-12-31T04:07:29;3.43;99.23
68274;SHT30;55104;47.356;19.448;2022-12-31T04:10:31;3.43;99.17
68274;SHT30;55104;47.356;19.448;2022-12-31T04:13:33;3.40;99.27
68274;SHT30;55104;47.356;19.448;2022-12-31T04:16:35;3.38;99.21
68274;SHT30;55104;47.356;19.448;2022-12-31T04:19:37;3.33;99.34
68274;SHT30;55104;47.356;19.448;2022-12-31T04:22:39;3.30;99.54
68274;SHT30;55104;47.356;19.448;2022-12-31T04:25:41;3.32;99.60
68274;SHT30;55104;47.356;19.448;2022-12-31T04:28:45;3.33;99.71
68274;SHT30;55104;47.356;19.448;2022-12-31T04:31:47;3.30;99.78
68274;SHT30;55104;47.356;19.448;2022-12-31T04:34:49;3.33;99.78
68274;SHT30;55104;47.356;19.448;2022-12-31T04:37:51;3.29;99.88
68274;SHT30;55104;47.356;19.448;2022-12-31T04:40:53;3.33;99.99
68274;SHT30;55104;47.356;19.448;2022-12-31T04:44:14;3.32;99.99
68274;SHT30;55104;47.356;19.448;2022-12-31T04:47:16;3.35;99.99
68274;SHT30;55104;47.356;19.448;2022-12-31T04:50:24;3.38;99.99
68274;SHT30;55104;47.356;19.448;2022-12-31T04:53:26;3.35;99.99
68274;SHT30;55104;47.356;19.448;2022-12-31T04:56:29;3.35;99.99
68274;SHT30;55104;47.356;19.448;2022-12-31T04:59:31;3.33;99.99
68274;SHT30;55104;47.356;19.448;2022-12-31T05:02:33;3.33;99.99
68274;SHT30;55104;47.356;19.448;2022-12-31T05:05:39;3.32;99.99
68274;SHT30;55104;47.356;19.448;2022-12-31T05:08:43;3.29;99.99
68274;SHT30;55104;47.356;19.448;2022-12-31T05:11:45;3.29;99.99
68274;SHT30;55104;47.356;19.448;2022-12-31T05:14:47;3.28;99.99
68274;SHT30;55104;47.356;19.448;2022-12-31T05:17:49;3.28;99.99
68274;SHT30;55104;47.356;19.448;2022-12-31T05:20:51;3.30;99.99
68274;SHT30;55104;47.356;19.448;2022-12-31T05:23:53;3.30;99.99
68274;SHT30;55104;47.356;19.448;2022-12-31T05:26:55;3.28;99.99
68274;SHT30;55104;47.356;19.448;2022-12-31T05:29:58;3.22;99.99
68274;SHT30;55104;47.356;19.448;2022-12-31T05:33:00;3.19;99.99
68274;SHT30;55104;47.356;19.448;2022-12-31T05:36:02;3.16;99.99
68274;SHT30;55104;47.356;19.448;2022-12-31T05:39:05;3.12;99.99
68274;SHT30;55104;47.356;19.448;2022-12-31T05:42:07;3.12;99.99
68274;SHT30;55104;47.356;19.448;2022-12-31T05:45:09;3.08;99.99
68274;SHT30;55104;47.356;19.448;2022-12-31T05:48:14;3.09;99.99
68274;SHT30;55104;47.356;19.448;2022-12-31T05:51:16;3.00;99.99
68274;SHT30;55104;47.356;19.448;2022-12-31T05:54:18;2.97;99.99
68274;SHT30;55104;47.356;19.448;2022-12-31T05:57:20;2.95;99.99
68274;SHT30;55104;47.356;19.448;2022-12-31T06:00:22;2.97;99.99
68274;SHT30;55104;47.356;19.448;2022-12-31T06:03:24;2.91;99.99
68274;SHT30;55104;47.356;19.448;2022-12-31T06:06:26;2.88;99.99
68274;SHT30;55104;47.356;19.448;2022-12-31T06:09:28;2.92;99.99
68274;SHT30;55104;47.356;19.448;2022-12-31T06:12:30;2.91;99.99
68274;SHT30;55104;47.356;19.448;2022-12-31T06:15:36;2.97;99.99
68274;SHT30;55104;47.356;19.448;2022-12-31T06:18:38;3.00;99.99
68274;SHT30;55104;47.356;19.448;2022-12-31T06:21:40;3.02;99.99
68274;SHT30;55104;47.356;19.448;2022-12-31T06:24:42;3.05;99.99
68274;SHT30;55104;47.356;19.448;2022-12-31T06:27:44;3.05;99.99
68274;SHT30;55104;47.356;19.448;2022-12-31T06:30:47;3.00;99.99
68274;SHT30;55104;47.356;19.448;2022-12-31T06:33:49;3.01;99.98
68274;SHT30;55104;47.356;19.448;2022-12-31T06:36:51;3.05;99.99
68274;SHT30;55104;47.356;19.448;2022-12-31T06:39:54;3.01;99.99
68274;SHT30;55104;47.356;19.448;2022-12-31T06:42:56;3.07;99.99
68274;SHT30;55104;47.356;19.448;2022-12-31T06:46:06;3.11;99.99
68274;SHT30;55104;47.356;19.448;2022-12-31T06:49:09;3.12;99.99
68274;SHT30;55104;47.356;19.448;2022-12-31T06:52:11;3.11;99.99
68274;SHT30;55104;47.356;19.448;2022-12-31T06:55:14;3.16;99.89
68274;SHT30;55104;47.356;19.448;2022-12-31T06:58:16;3.16;99.84
68274;SHT30;55104;47.356;19.448;2022-12-31T07:11:27;3.25;99.74
68274;SHT30;55104;47.356;19.448;2022-12-31T07:14:45;3.33;99.76
68274;SHT30;55104;47.356;19.448;2022-12-31T07:18:19;3.39;99.62
68274;SHT30;55104;47.356;19.448;2022-12-31T07:21:32;3.42;99.43
68274;SHT30;55104;47.356;19.448;2022-12-31T07:24:38;3.42;99.27
68274;SHT30;55104;47.356;19.448;2022-12-31T07:31:16;3.52;99.34
68274;SHT30;55104;47.356;19.448;2022-12-31T07:34:28;3.59;99.27
68274;SHT30;55104;47.356;19.448;2022-12-31T07:44:40;3.69;98.81
68274;SHT30;55104;47.356;19.448;2022-12-31T07:47:43;3.64;98.75
68274;SHT30;55104;47.356;19.448;2022-12-31T07:50:45;3.73;98.69
68274;SHT30;55104;47.356;19.448;2022-12-31T07:53:47;3.80;98.76
68274;SHT30;55104;47.356;19.448;2022-12-31T07:56:50;3.73;98.57
68274;SHT30;55104;47.356;19.448;2022-12-31T08:00:09;3.81;98.52
68274;SHT30;55104;47.356;19.448;2022-12-31T08:03:54;3.80;98.30
68274;SHT30;55104;47.356;19.448;2022-12-31T08:10:20;4.05;98.51
68274;SHT30;55104;47.356;19.448;2022-12-31T08:13:24;4.19;98.26
68274;SHT30;55104;47.356;19.448;2022-12-31T08:16:26;4.30;98.23
68274;SHT30;55104;47.356;19.448;2022-12-31T08:19:30;4.38;98.18
68274;SHT30;55104;47.356;19.448;2022-12-31T08:26:06;4.54;97.97
68274;SHT30;55104;47.356;19.448;2022-12-31T08:32:26;4.61;97.66
68274;SHT30;55104;47.356;19.448;2022-12-31T08:35:57;4.91;97.59
68274;SHT30;55104;47.356;19.448;2022-12-31T08:42:34;5.26;96.68
68274;SHT30;55104;47.356;19.448;2022-12-31T08:45:42;5.38;96.78
68274;SHT30;55104;47.356;19.448;2022-12-31T08:48:45;5.38;95.84
68274;SHT30;55104;47.356;19.448;2022-12-31T08:51:49;5.43;96.15
68274;SHT30;55104;47.356;19.448;2022-12-31T08:54:53;5.39;96.39
68274;SHT30;55104;47.356;19.448;2022-12-31T09:14:49;5.74;95.11
68274;SHT30;55104;47.356;19.448;2022-12-31T09:17:54;5.78;95.17
68274;SHT30;55104;47.356;19.448;2022-12-31T09:20:56;5.83;94.67
68274;SHT30;55104;47.356;19.448;2022-12-31T09:23:59;5.93;94.37
68274;SHT30;55104;47.356;19.448;2022-12-31T09:30:36;6.08;94.05
68274;SHT30;55104;47.356;19.448;2022-12-31T09:34:12;6.19;93.65
68274;SHT30;55104;47.356;19.448;2022-12-31T09:37:20;6.22;93.61
68274;SHT30;55104;47.356;19.448;2022-12-31T09:54:32;6.77;92.59
68274;SHT30;55104;47.356;19.448;2022-12-31T10:00:54;6.74;92.58
68274;SHT30;55104;47.356;19.448;2022-12-31T10:04:02;6.83;92.43
68274;SHT30;55104;47.356;19.448;2022-12-31T10:10:48;6.94;92.09
68274;SHT30;55104;47.356;19.448;2022-12-31T10:14:59;7.15;92.03
68274;SHT30;55104;47.356;19.448;2022-12-31T10:28:05;7.30;91.35
68274;SHT30;55104;47.356;19.448;2022-12-31T10:31:41;7.42;91.35
68274;SHT30;55104;47.356;19.448;2022-12-31T10:45:15;7.71;91.07
68274;SHT30;55104;47.356;19.448;2022-12-31T11:06:23;8.01;91.16
68274;SHT30;55104;47.356;19.448;2022-12-31T11:17:02;8.03;90.75
68274;SHT30;55104;47.356;19.448;2022-12-31T11:40:30;7.90;91.04
68274;SHT30;55104;47.356;19.448;2022-12-31T11:43:43;7.80;90.98
68274;SHT30;55104;47.356;19.448;2022-12-31T11:53:35;7.73;91.34
68274;SHT30;55104;47.356;19.448;2022-12-31T11:56:45;7.71;91.18
68274;SHT30;55104;47.356;19.448;2022-12-31T11:59:51;7.73;91.37
68274;SHT30;55104;47.356;19.448;2022-12-31T12:03:00;7.74;91.36
68274;SHT30;55104;47.356;19.448;2022-12-31T12:06:04;7.77;91.32
68274;SHT30;55104;47.356;19.448;2022-12-31T12:09:14;7.71;91.16
68274;SHT30;55104;47.356;19.448;2022-12-31T12:12:18;7.75;91.30
68274;SHT30;55104;47.356;19.448;2022-12-31T12:15:26;7.70;91.37
68274;SHT30;55104;47.356;19.448;2022-12-31T12:21:45;7.71;91.49
68274;SHT30;55104;47.356;19.448;2022-12-31T12:25:03;7.77;91.44
68274;SHT30;55104;47.356;19.448;2022-12-31T12:28:19;7.71;90.97
68274;SHT30;55104;47.356;19.448;2022-12-31T12:31:22;7.71;91.23
68274;SHT30;55104;47.356;19.448;2022-12-31T12:34:30;7.75;91.39
68274;SHT30;55104;47.356;19.448;2022-12-31T12:37:34;7.82;91.29
68274;SHT30;55104;47.356;19.448;2022-12-31T12:40:37;7.85;91.25
68274;SHT30;55104;47.356;19.448;2022-12-31T12:43:40;7.88;90.80
68274;SHT30;55104;47.356;19.448;2022-12-31T12:46:51;7.90;90.83
68274;SHT30;55104;47.356;19.448;2022-12-31T12:49:54;7.94;90.84
68274;SHT30;55104;47.356;19.448;2022-12-31T12:56:29;7.94;90.90
68274;SHT30;55104;47.356;19.448;2022-12-31T13:06:57;8.12;90.52
68274;SHT30;55104;47.356;19.448;2022-12-31T13:19:46;8.09;90.67
68274;SHT30;55104;47.356;19.448;2022-12-31T13:26:12;8.19;90.49
68274;SHT30;55104;47.356;19.448;2022-12-31T13:29:19;8.24;90.37
68274;SHT30;55104;47.356;19.448;2022-12-31T13:32:36;8.30;90.10
68274;SHT30;55104;47.356;19.448;2022-12-31T13:38:59;8.45;90.21
68274;SHT30;55104;47.356;19.448;2022-12-31T13:42:19;8.47;90.17
68274;SHT30;55104;47.356;19.448;2022-12-31T13:45:35;8.53;90.07
68274;SHT30;55104;47.356;19.448;2022-12-31T13:48:47;8.57;90.12
68274;SHT30;55104;47.356;19.448;2022-12-31T13:51:56;8.61;90.11
68274;SHT30;55104;47.356;19.448;2022-12-31T13:55:12;8.60;90.21
68274;SHT30;55104;47.356;19.448;2022-12-31T13:58:22;8.66;90.12
68274;SHT30;55104;47.356;19.448;2022-12-31T14:05:05;8.68;90.01
68274;SHT30;55104;47.356;19.448;2022-12-31T14:08:10;8.63;89.83
68274;SHT30;55104;47.356;19.448;2022-12-31T14:11:42;8.52;90.20
68274;SHT30;55104;47.356;19.448;2022-12-31T14:14:55;8.49;90.37
68274;SHT30;55104;47.356;19.448;2022-12-31T14:18:05;8.40;90.59
68274;SHT30;55104;47.356;19.448;2022-12-31T14:21:16;8.28;90.91
68274;SHT30;55104;47.356;19.448;2022-12-31T14:27:38;8.35;91.09
68274;SHT30;55104;47.356;19.448;2022-12-31T14:31:01;8.25;91.20
68274;SHT30;55104;47.356;19.448;2022-12-31T14:37:36;8.19;91.44
68274;SHT30;55104;47.356;19.448;2022-12-31T14:40:52;8.19;91.37
68274;SHT30;55104;47.356;19.448;2022-12-31T14:47:39;8.01;91.82
68274;SHT30;55104;47.356;19.448;2022-12-31T14:50:45;7.92;92.19
68274;SHT30;55104;47.356;19.448;2022-12-31T14:53:55;7.90;92.48
68274;SHT30;55104;47.356;19.448;2022-12-31T14:57:08;7.82;92.62
68274;SHT30;55104;47.356;19.448;2022-12-31T15:03:33;7.70;93.06
68274;SHT30;55104;47.356;19.448;2022-12-31T15:07:19;7.64;93.19
68274;SHT30;55104;47.356;19.448;2022-12-31T15:17:47;7.53;93.72
68274;SHT30;55104;47.356;19.448;2022-12-31T15:21:19;7.45;93.81
68274;SHT30;55104;47.356;19.448;2022-12-31T15:24:29;7.27;94.09
68274;SHT30;55104;47.356;19.448;2022-12-31T15:30:38;7.18;94.78
68274;SHT30;55104;47.356;19.448;2022-12-31T15:34:05;7.12;94.79
68274;SHT30;55104;47.356;19.448;2022-12-31T15:40:44;7.02;94.99
68274;SHT30;55104;47.356;19.448;2022-12-31T15:43:50;6.95;94.80
68274;SHT30;55104;47.356;19.448;2022-12-31T15:47:01;6.91;94.90
68274;SHT30;55104;47.356;19.448;2022-12-31T15:50:10;6.88;94.88
68274;SHT30;55104;47.356;19.448;2022-12-31T15:53:31;6.90;95.17
68274;SHT30;55104;47.356;19.448;2022-12-31T15:56:41;7.01;95.57
68274;SHT30;55104;47.356;19.448;2022-12-31T15:59:46;7.01;95.48
68274;SHT30;55104;47.356;19.448;2022-12-31T16:02:53;7.20;95.59
68274;SHT30;55104;47.356;19.448;2022-12-31T16:06:01;7.22;95.43
68274;SHT30;55104;47.356;19.448;2022-12-31T16:09:22;7.25;95.56
68274;SHT30;55104;47.356;19.448;2022-12-31T16:12:27;7.23;95.61
68274;SHT30;55104;47.356;19.448;2022-12-31T16:15:37;7.22;95.80
68274;SHT30;55104;47.356;19.448;2022-12-31T16:18:42;7.16;95.90
68274;SHT30;55104;47.356;19.448;2022-12-31T16:21:44;7.18;95.90
68274;SHT30;55104;47.356;19.448;2022-12-31T16:25:00;7.08;95.79
68274;SHT30;55104;47.356;19.448;2022-12-31T16:28:27;7.04;96.14
68274;SHT30;55104;47.356;19.448;2022-12-31T16:31:31;7.19;96.83
68274;SHT30;55104;47.356;19.448;2022-12-31T16:34:36;7.27;96.63
68274;SHT30;55104;47.356;19.448;2022-12-31T16:37:38;7.30;96.45
68274;SHT30;55104;47.356;19.448;2022-12-31T16:40:42;7.29;96.24
68274;SHT30;55104;47.356;19.448;2022-12-31T16:43:47;7.14;96.04
68274;SHT30;55104;47.356;19.448;2022-12-31T16:46:55;6.98;96.16
68274;SHT30;55104;47.356;19.448;2022-12-31T16:50:04;6.90;96.44
68274;SHT30;55104;47.356;19.448;2022-12-31T16:53:11;6.84;96.52
68274;SHT30;55104;47.356;19.448;2022-12-31T16:56:36;6.64;96.41
68274;SHT30;55104;47.356;19.448;2022-12-31T16:59:42;6.44;96.39
68274;SHT30;55104;47.356;19.448;2022-12-31T17:09:19;6.26;96.97
68274;SHT30;55104;47.356;19.448;2022-12-31T17:12:22;6.18;97.31
68274;SHT30;55104;47.356;19.448;2022-12-31T17:15:40;6.15;97.44
68274;SHT30;55104;47.356;19.448;2022-12-31T17:18:43;6.22;98.04
68274;SHT30;55104;47.356;19.448;2022-12-31T17:21:46;6.30;97.97
68274;SHT30;55104;47.356;19.448;2022-12-31T17:24:50;6.32;98.06
68274;SHT30;55104;47.356;19.448;2022-12-31T17:30:59;6.22;97.77
68274;SHT30;55104;47.356;19.448;2022-12-31T17:34:19;6.11;97.69
68274;SHT30;55104;47.356;19.448;2022-12-31T17:37:26;6.01;97.53
68274;SHT30;55104;47.356;19.448;2022-12-31T17:40:36;5.95;97.73
68274;SHT30;55104;47.356;19.448;2022-12-31T17:43:54;5.95;97.98
68274;SHT30;55104;47.356;19.448;2022-12-31T17:46:57;5.93;97.93
68274;SHT30;55104;47.356;19.448;2022-12-31T17:50:07;5.90;97.96
68274;SHT30;55104;47.356;19.448;2022-12-31T17:53:11;5.77;97.69
68274;SHT30;55104;47.356;19.448;2022-12-31T17:56:14;5.71;97.78
68274;SHT30;55104;47.356;19.448;2022-12-31T17:59:31;5.70;97.92
68274;SHT30;55104;47.356;19.448;2022-12-31T18:02:34;5.70;98.14
68274;SHT30;55104;47.356;19.448;2022-12-31T18:05:36;5.66;98.08
68274;SHT30;55104;47.356;19.448;2022-12-31T18:08:38;5.66;98.31
68274;SHT30;55104;47.356;19.448;2022-12-31T18:11:41;5.64;98.46
68274;SHT30;55104;47.356;19.448;2022-12-31T18:14:44;5.78;98.47
68274;SHT30;55104;47.356;19.448;2022-12-31T18:17:47;5.78;98.50
68274;SHT30;55104;47.356;19.448;2022-12-31T18:20:52;5.87;98.61
68274;SHT30;55104;47.356;19.448;2022-12-31T18:23:55;5.86;98.59
68274;SHT30;55104;47.356;19.448;2022-12-31T18:26:56;5.73;98.06
68274;SHT30;55104;47.356;19.448;2022-12-31T18:29:59;5.69;97.92
68274;SHT30;55104;47.356;19.448;2022-12-31T18:33:11;5.60;97.96
68274;SHT30;55104;47.356;19.448;2022-12-31T18:36:15;5.57;97.97
68274;SHT30;55104;47.356;19.448;2022-12-31T18:39:18;5.60;98.18
68274;SHT30;55104;47.356;19.448;2022-12-31T18:42:22;5.53;98.00
68274;SHT30;55104;47.356;19.448;2022-12-31T18:45:26;5.63;98.52
68274;SHT30;55104;47.356;19.448;2022-12-31T18:48:28;5.49;98.17
68274;SHT30;55104;47.356;19.448;2022-12-31T18:51:30;5.49;98.51
68274;SHT30;55104;47.356;19.448;2022-12-31T18:54:33;5.56;98.74
68274;SHT30;55104;47.356;19.448;2022-12-31T18:57:35;5.50;98.74
68274;SHT30;55104;47.356;19.448;2022-12-31T19:00:37;5.57;99.03
68274;SHT30;55104;47.356;19.448;2022-12-31T19:03:39;5.71;99.41
68274;SHT30;55104;47.356;19.448;2022-12-31T19:06:42;5.80;99.67
68274;SHT30;55104;47.356;19.448;2022-12-31T19:09:45;5.91;99.62
68274;SHT30;55104;47.356;19.448;2022-12-31T19:12:51;5.98;99.71
68274;SHT30;55104;47.356;19.448;2022-12-31T19:15:53;6.02;99.53
68274;SHT30;55104;47.356;19.448;2022-12-31T19:18:56;6.02;99.33
68274;SHT30;55104;47.356;19.448;2022-12-31T19:21:58;6.09;99.22
68274;SHT30;55104;47.356;19.448;2022-12-31T19:25:00;6.16;99.20
68274;SHT30;55104;47.356;19.448;2022-12-31T19:28:05;6.18;99.21
68274;SHT30;55104;47.356;19.448;2022-12-31T19:31:12;6.18;99.03
68274;SHT30;55104;47.356;19.448;2022-12-31T19:34:15;6.15;98.94
68274;SHT30;55104;47.356;19.448;2022-12-31T19:37:17;6.21;99.00
68274;SHT30;55104;47.356;19.448;2022-12-31T19:40:25;6.26;98.99
68274;SHT30;55104;47.356;19.448;2022-12-31T19:43:27;6.29;98.94
68274;SHT30;55104;47.356;19.448;2022-12-31T19:46:29;6.39;98.90
68274;SHT30;55104;47.356;19.448;2022-12-31T19:49:32;6.40;98.88
68274;SHT30;55104;47.356;19.448;2022-12-31T19:52:34;6.46;98.93
68274;SHT30;55104;47.356;19.448;2022-12-31T19:55:36;6.56;99.02
68274;SHT30;55104;47.356;19.448;2022-12-31T19:58:38;6.57;98.99
68274;SHT30;55104;47.356;19.448;2022-12-31T20:01:40;6.67;99.07
68274;SHT30;55104;47.356;19.448;2022-12-31T20:04:43;6.73;98.98
68274;SHT30;55104;47.356;19.448;2022-12-31T20:07:45;6.67;98.60
68274;SHT30;55104;47.356;19.448;2022-12-31T20:10:47;6.52;98.62
68274;SHT30;55104;47.356;19.448;2022-12-31T20:13:50;6.43;98.59
68274;SHT30;55104;47.356;19.448;2022-12-31T20:16:53;6.24;98.19
68274;SHT30;55104;47.356;19.448;2022-12-31T20:19:56;6.12;98.47
68274;SHT30;55104;47.356;19.448;2022-12-31T20:22:58;6.04;98.65
68274;SHT30;55104;47.356;19.448;2022-12-31T20:26:01;5.98;98.96
68274;SHT30;55104;47.356;19.448;2022-12-31T20:29:03;5.84;98.65
68274;SHT30;55104;47.356;19.448;2022-12-31T20:32:05;5.69;98.54
68274;SHT30;55104;47.356;19.448;2022-12-31T20:35:07;5.59;98.55
68274;SHT30;55104;47.356;19.448;2022-12-31T20:38:09;5.63;99.18
68274;SHT30;55104;47.356;19.448;2022-12-31T20:41:17;5.56;99.19
68274;SHT30;55104;47.356;19.448;2022-12-31T20:44:20;5.59;99.42
68274;SHT30;55104;47.356;19.448;2022-12-31T20:47:22;5.61;99.54
68274;SHT30;55104;47.356;19.448;2022-12-31T20:50:24;5.54;99.44
68274;SHT30;55104;47.356;19.448;2022-12-31T20:53:26;5.56;99.43
68274;SHT30;55104;47.356;19.448;2022-12-31T20:56:34;5.49;99.45
68274;SHT30;55104;47.356;19.448;2022-12-31T20:59:36;5.36;99.26
68274;SHT30;55104;47.356;19.448;2022-12-31T21:02:38;5.31;99.14
68274;SHT30;55104;47.356;19.448;2022-12-31T21:05:51;5.18;98.80
68274;SHT30;55104;47.356;19.448;2022-12-31T21:08:55;5.09;98.84
68274;SHT30;55104;47.356;19.448;2022-12-31T21:11:58;5.02;98.91
68274;SHT30;55104;47.356;19.448;2022-12-31T21:15:19;4.92;98.84
68274;SHT30;55104;47.356;19.448;2022-12-31T21:18:22;4.89;98.89
68274;SHT30;55104;47.356;19.448;2022-12-31T21:21:24;4.85;99.09
68274;SHT30;55104;47.356;19.448;2022-12-31T21:24:26;4.87;99.19
68274;SHT30;55104;47.356;19.448;2022-12-31T21:27:28;4.99;99.36
68274;SHT30;55104;47.356;19.448;2022-12-31T21:30:32;5.07;99.58
68274;SHT30;55104;47.356;19.448;2022-12-31T21:33:34;5.11;99.64
68274;SHT30;55104;47.356;19.448;2022-12-31T21:36:36;5.16;99.94
68274;SHT30;55104;47.356;19.448;2022-12-31T21:39:38;5.07;99.73
68274;SHT30;55104;47.356;19.448;2022-12-31T21:42:40;5.02;99.67
68274;SHT30;55104;47.356;19.448;2022-12-31T21:45:42;5.05;99.98
68274;SHT30;55104;47.356;19.448;2022-12-31T21:48:45;5.05;99.99
68274;SHT30;55104;47.356;19.448;2022-12-31T21:51:47;5.09;99.99
68274;SHT30;55104;47.356;19.448;2022-12-31T21:55:10;5.11;99.99
68274;SHT30;55104;47.356;19.448;2022-12-31T21:58:32;5.07;99.99
68274;SHT30;55104;47.356;19.448;2022-12-31T22:01:34;5.05;99.99
68274;SHT30;55104;47.356;19.448;2022-12-31T22:04:55;5.15;99.99
68274;SHT30;55104;47.356;19.448;2022-12-31T22:08:15;5.15;99.99
68274;SHT30;55104;47.356;19.448;2022-12-31T22:11:19;5.16;99.99
68274;SHT30;55104;47.356;19.448;2022-12-31T22:14:22;5.11;99.89
68274;SHT30;55104;47.356;19.448;2022-12-31T22:17:24;5.07;99.56
68274;SHT30;55104;47.356;19.448;2022-12-31T22:20:26;5.02;99.65
68274;SHT30;55104;47.356;19.448;2022-12-31T22:23:30;4.95;99.42
68274;SHT30;55104;47.356;19.448;2022-12-31T22:26:32;4.88;99.31
68274;SHT30;55104;47.356;19.448;2022-12-31T22:29:35;4.88;99.22
68274;SHT30;55104;47.356;19.448;2022-12-31T22:32:37;4.91;99.30
68274;SHT30;55104;47.356;19.448;2022-12-31T22:35:39;4.88;99.42
68274;SHT30;55104;47.356;19.448;2022-12-31T22:38:42;4.85;99.55
68274;SHT30;55104;47.356;19.448;2022-12-31T22:41:44;4.92;99.73
68274;SHT30;55104;47.356;19.448;2022-12-31T22:44:47;4.97;99.81
68274;SHT30;55104;47.356;19.448;2022-12-31T22:47:49;4.95;99.75
68274;SHT30;55104;47.356;19.448;2022-12-31T22:50:57;4.94;99.74
68274;SHT30;55104;47.356;19.448;2022-12-31T22:54:00;4.98;99.65
68274;SHT30;55104;47.356;19.448;2022-12-31T22:57:02;5.02;99.78
68274;SHT30;55104;47.356;19.448;2022-12-31T23:00:06;5.01;99.94
68274;SHT30;55104;47.356;19.448;2022-12-31T23:03:12;4.98;99.81
68274;SHT30;55104;47.356;19.448;2022-12-31T23:06:14;4.88;99.56
68274;SHT30;55104;47.356;19.448;2022-12-31T23:09:17;5.04;99.95
68274;SHT30;55104;47.356;19.448;2022-12-31T23:12:38;5.02;99.99
68274;SHT30;55104;47.356;19.448;2022-12-31T23:15:43;5.02;99.99
68274;SHT30;55104;47.356;19.448;2022-12-31T23:19:05;5.21;99.99
68274;SHT30;55104;47.356;19.448;2022-12-31T23:22:25;5.14;99.99
68274;SHT30;55104;47.356;19.448;2022-12-31T23:25:50;4.92;99.59
68274;SHT30;55104;47.356;19.448;2022-12-31T23:28:52;4.80;99.42
68274;SHT30;55104;47.356;19.448;2022-12-31T23:31:54;4.74;99.59
68274;SHT30;55104;47.356;19.448;2022-12-31T23:34:56;4.64;99.58
68274;SHT30;55104;47.356;19.448;2022-12-31T23:37:58;4.70;99.73
68274;SHT30;55104;47.356;19.448;2022-12-31T23:41:13;4.71;99.78
68274;SHT30;55104;47.356;19.448;2022-12-31T23:44:15;4.66;99.68